Time;durP1;ratioP1;P1;durP2;ratioP2;P2;SDS_P1;SDS_P2;PMS_P1;PMS_P2;Temp;Humidity;BMP_temperature;BMP_pressure;BME280_temperature;BME280_humidity;BME280_pressure;Samples;Min_cycle;Max_cycle;Signal;HPM_P1;HPM_P2
2023/05/17 00:01:50;;;;;;;8.73;2.20;;;17.30;93.60;;;;;;6245053;23;20111;-79
2023/05/17 00:04:15;;;;;;;9.07;2.28;;;17.30;93.70;;;;;;6217846;23;20354;-80
2023/05/17 00:06:42;;;;;;;5.65;2.25;;;17.30;93.70;;;;;;6245209;23;20146;-80
2023/05/17 00:09:08;;;;;;;9.27;2.40;;;17.30;93.80;;;;;;6245042;23;20008;-81
2023/05/17 00:11:34;;;;;;;9.05;2.33;;;17.30;93.90;;;;;;6245706;23;20008;-80
2023/05/17 00:14:00;;;;;;;8.48;2.60;;;17.30;93.90;;;;;;6245405;23;20004;-80
2023/05/17 00:16:26;;;;;;;7.95;2.47;;;17.30;94.00;;;;;;6244647;23;20080;-79
2023/05/17 00:18:51;;;;;;;7.55;2.40;;;17.30;94.10;;;;;;6244970;23;20005;-79
2023/05/17 00:21:17;;;;;;;6.47;2.35;;;17.30;94.10;;;;;;6244752;23;20079;-80
2023/05/17 00:23:43;;;;;;;6.88;2.40;;;17.20;94.20;;;;;;6245725;23;20049;-80
2023/05/17 00:26:08;;;;;;;11.63;2.83;;;17.20;94.30;;;;;;6244649;23;20007;-79
2023/05/17 00:28:34;;;;;;;9.20;3.00;;;17.20;94.50;;;;;;6244990;23;20000;-79
2023/05/17 00:31:00;;;;;;;8.55;2.88;;;17.20;94.50;;;;;;6246744;23;20022;-79
2023/05/17 00:33:25;;;;;;;11.07;2.70;;;17.20;94.60;;;;;;6246728;23;20027;-80
2023/05/17 00:35:51;;;;;;;11.88;2.92;;;17.20;94.60;;;;;;6246555;23;20035;-79
2023/05/17 00:38:17;;;;;;;11.25;3.13;;;17.20;94.70;;;;;;6245982;23;20612;-79
2023/05/17 00:40:42;;;;;;;8.30;2.95;;;17.20;94.70;;;;;;6246484;23;20000;-79
2023/05/17 00:43:08;;;;;;;8.40;3.33;;;17.20;94.80;;;;;;6246266;23;20008;-79
2023/05/17 00:45:34;;;;;;;8.35;3.30;;;17.20;94.90;;;;;;6246218;23;20011;-80
2023/05/17 00:48:00;;;;;;;7.13;3.22;;;17.20;95.00;;;;;;6247018;23;20001;-79
2023/05/17 00:50:25;;;;;;;12.75;3.20;;;17.20;95.00;;;;;;6247065;23;20012;-80
2023/05/17 00:52:52;;;;;;;8.45;3.50;;;17.20;95.10;;;;;;6246634;23;20000;-80
2023/05/17 00:55:18;;;;;;;6.38;3.03;;;17.20;95.20;;;;;;6246364;23;20330;-79
2023/05/17 00:57:45;;;;;;;10.52;3.55;;;17.20;95.20;;;;;;6219767;23;20008;-80
2023/05/17 01:00:11;;;;;;;8.77;3.45;;;17.20;95.30;;;;;;6220778;23;20027;-80
2023/05/17 01:02:37;;;;;;;8.65;3.42;;;17.20;95.40;;;;;;6246719;23;20051;-80
2023/05/17 01:05:03;;;;;;;8.38;3.63;;;17.20;95.40;;;;;;6246471;23;20000;-79
2023/05/17 01:07:29;;;;;;;8.57;3.90;;;17.20;95.40;;;;;;6219860;23;20384;-79
2023/05/17 01:09:55;;;;;;;8.38;3.55;;;17.20;95.50;;;;;;6247009;23;20040;-79
2023/05/17 01:12:48;;;;;;;10.73;3.63;;;17.20;95.50;;;;;;6247057;23;20023;-79
2023/05/17 01:15:24;;;;;;;13.63;4.10;;;17.20;95.60;;;;;;6247181;23;20047;-79
2023/05/17 01:18:27;;;;;;;8.40;4.55;;;17.20;95.60;;;;;;6246650;23;20053;-80
2023/05/17 01:20:54;;;;;;;9.52;4.97;;;17.20;95.70;;;;;;6246461;23;20008;-79
2023/05/17 01:23:26;;;;;;;11.05;5.75;;;17.10;95.60;;;;;;6246082;23;20004;-78
2023/05/17 01:26:07;;;;;;;14.70;6.28;;;17.10;95.80;;;;;;6246540;23;20004;-79
2023/05/17 01:28:35;;;;;;;11.57;6.32;;;17.10;95.80;;;;;;6246560;23;20095;-79
2023/05/17 01:31:02;;;;;;;12.63;7.18;;;17.10;95.80;;;;;;6245969;23;20008;-79
2023/05/17 01:33:32;;;;;;;11.13;7.70;;;17.10;95.90;;;;;;6246345;23;20460;-79
2023/05/17 01:35:58;;;;;;;16.13;8.07;;;17.10;95.90;;;;;;6245885;23;20326;-79
2023/05/17 01:38:24;;;;;;;17.25;8.52;;;17.10;95.90;;;;;;6246031;23;19997;-79
2023/05/17 01:41:16;;;;;;;13.20;7.95;;;17.10;96.00;;;;;;6245598;23;20059;-79
2023/05/17 01:43:50;;;;;;;10.15;7.63;;;17.10;96.00;;;;;;6230095;23;20012;-79
2023/05/17 01:46:34;;;;;;;13.27;8.48;;;17.10;95.90;;;;;;6245803;23;20007;-80
2023/05/17 01:49:12;;;;;;;13.25;7.85;;;17.10;96.00;;;;;;6246186;23;20488;-79
2023/05/17 01:51:48;;;;;;;13.35;9.57;;;17.10;96.00;;;;;;6245976;23;20008;-79
2023/05/17 01:54:16;;;;;;;15.07;9.18;;;17.10;96.00;;;;;;6245846;23;19998;-79
2023/05/17 01:56:47;;;;;;;17.92;9.60;;;17.10;96.00;;;;;;6246291;23;20000;-80
2023/05/17 01:59:16;;;;;;;17.25;9.75;;;17.10;96.10;;;;;;6219138;23;20398;-80
2023/05/17 02:01:42;;;;;;;19.30;10.10;;;17.10;96.10;;;;;;6246184;23;20035;-79
2023/05/17 02:04:09;;;;;;;15.60;8.77;;;17.10;96.20;;;;;;6245550;23;20423;-80
2023/05/17 02:06:34;;;;;;;17.38;9.50;;;17.10;96.20;;;;;;6245702;23;20004;-79
2023/05/17 02:09:01;;;;;;;19.95;9.13;;;17.10;96.20;;;;;;6245068;23;20433;-79
2023/05/17 02:11:27;;;;;;;11.68;8.82;;;17.10;96.20;;;;;;6245351;23;20008;-79
2023/05/17 02:13:53;;;;;;;10.75;7.70;;;17.10;96.30;;;;;;6245292;23;20005;-79
2023/05/17 02:16:19;;;;;;;14.32;8.32;;;17.10;96.30;;;;;;6245186;23;20445;-79
2023/05/17 02:18:44;;;;;;;15.70;8.70;;;17.10;96.30;;;;;;6245592;23;20031;-79
2023/05/17 02:21:12;;;;;;;11.38;8.60;;;17.10;96.30;;;;;;6245479;23;20000;-78
2023/05/17 02:23:37;;;;;;;14.00;9.07;;;17.10;96.40;;;;;;6245728;23;20012;-79
2023/05/17 02:26:03;;;;;;;13.95;8.52;;;17.00;96.40;;;;;;6245280;23;20433;-79
2023/05/17 02:28:29;;;;;;;13.88;9.60;;;17.00;96.40;;;;;;6245485;23;20004;-79
2023/05/17 02:30:55;;;;;;;16.70;9.80;;;17.00;96.50;;;;;;6245240;23;20079;-80
2023/05/17 02:33:21;;;;;;;15.40;9.05;;;17.00;96.60;;;;;;6245428;23;20004;-80
2023/05/17 02:35:48;;;;;;;13.10;9.60;;;17.00;96.50;;;;;;6245263;23;20338;-78
2023/05/17 02:38:14;;;;;;;16.90;9.82;;;17.00;96.50;;;;;;6218407;23;20004;-79
2023/05/17 02:40:41;;;;;;;18.42;10.70;;;17.00;96.60;;;;;;6245256;23;20070;-80
2023/05/17 02:43:06;;;;;;;15.13;10.38;;;17.00;96.50;;;;;;6245392;23;20406;-81
2023/05/17 02:45:32;;;;;;;19.80;10.48;;;17.00;96.60;;;;;;6245374;23;20045;-80
2023/05/17 02:47:58;;;;;;;17.38;10.80;;;17.00;96.60;;;;;;6245632;23;20046;-79
2023/05/17 02:50:24;;;;;;;17.38;11.27;;;16.90;96.60;;;;;;6251428;23;20016;-77
2023/05/17 02:52:49;;;;;;;20.70;10.20;;;17.00;96.70;;;;;;6271297;23;20027;-79
2023/05/17 02:55:15;;;;;;;15.50;9.95;;;17.00;96.80;;;;;;6243101;23;20028;-80
2023/05/17 02:57:41;;;;;;;15.07;10.05;;;16.90;96.70;;;;;;6247148;23;20000;-79
2023/05/17 03:00:08;;;;;;;15.18;10.30;;;17.00;96.80;;;;;;6245932;23;20007;-80
2023/05/17 03:02:33;;;;;;;14.88;10.40;;;17.00;96.80;;;;;;6245731;23;20020;-79
2023/05/17 03:04:59;;;;;;;17.52;9.82;;;16.90;96.70;;;;;;6245594;23;20011;-79
2023/05/17 03:07:25;;;;;;;15.63;10.07;;;17.00;96.80;;;;;;6245306;23;20071;-79
2023/05/17 03:09:50;;;;;;;16.25;10.75;;;16.90;96.80;;;;;;6245813;23;20012;-80
2023/05/17 03:12:16;;;;;;;12.68;9.93;;;17.00;96.90;;;;;;6246332;23;20023;-80
2023/05/17 03:14:42;;;;;;;15.75;9.82;;;17.00;96.90;;;;;;6246500;23;20030;-79
2023/05/17 03:17:07;;;;;;;14.50;10.05;;;17.00;96.90;;;;;;6248545;23;20074;-80
2023/05/17 03:19:33;;;;;;;16.52;10.43;;;16.90;96.90;;;;;;6253111;23;19999;-80
2023/05/17 03:21:58;;;;;;;17.00;10.15;;;16.90;97.00;;;;;;6252528;23;19996;-80
2023/05/17 03:24:24;;;;;;;16.77;10.02;;;17.00;97.00;;;;;;6252988;23;20091;-80
2023/05/17 03:26:50;;;;;;;15.40;10.75;;;17.00;97.00;;;;;;6247455;23;19996;-80
2023/05/17 03:29:16;;;;;;;12.27;9.95;;;17.00;97.10;;;;;;6245347;23;20058;-80
2023/05/17 03:31:41;;;;;;;16.48;9.70;;;17.00;97.00;;;;;;6245063;23;20008;-80
2023/05/17 03:34:07;;;;;;;16.65;9.60;;;16.90;97.00;;;;;;6245066;23;20000;-79
2023/05/17 03:36:34;;;;;;;17.27;10.73;;;16.90;97.10;;;;;;6245196;23;19996;-80
2023/05/17 03:38:59;;;;;;;15.50;9.70;;;16.90;97.10;;;;;;6245335;23;20009;-79
2023/05/17 03:41:25;;;;;;;16.95;10.70;;;17.00;97.10;;;;;;6245158;23;20051;-80
2023/05/17 03:43:51;;;;;;;16.27;10.45;;;16.90;97.20;;;;;;6245204;23;20003;-80
2023/05/17 03:46:16;;;;;;;14.13;10.63;;;16.90;97.30;;;;;;6245026;23;20000;-79
2023/05/17 03:48:42;;;;;;;14.63;10.48;;;16.90;97.30;;;;;;6245414;23;20091;-78
2023/05/17 03:51:08;;;;;;;16.30;10.23;;;16.90;97.30;;;;;;6245088;23;20008;-80
2023/05/17 03:53:39;;;;;;;18.20;10.27;;;16.90;97.30;;;;;;6218068;23;20007;-79
2023/05/17 03:56:05;;;;;;;20.65;10.70;;;16.90;97.50;;;;;;6244941;23;20074;-80
2023/05/17 03:58:31;;;;;;;19.92;11.57;;;16.90;97.40;;;;;;6244969;23;20422;-80
2023/05/17 04:00:56;;;;;;;16.65;10.20;;;16.90;97.30;;;;;;6244996;23;20107;-80
2023/05/17 04:03:22;;;;;;;23.25;14.18;;;16.90;97.40;;;;;;6244300;23;20020;-78
2023/05/17 04:05:48;;;;;;;17.73;12.43;;;16.90;97.40;;;;;;6246821;23;20027;-80
2023/05/17 04:08:13;;;;;;;18.05;11.63;;;16.90;97.40;;;;;;6247187;23;19992;-80
2023/05/17 04:10:40;;;;;;;16.35;10.40;;;16.90;97.60;;;;;;6247716;23;20015;-80
2023/05/17 04:13:08;;;;;;;14.68;9.98;;;17.00;97.30;;;;;;6247009;23;20004;-79
2023/05/17 04:15:34;;;;;;;16.08;10.25;;;16.90;97.30;;;;;;6246810;23;20020;-79
2023/05/17 04:18:00;;;;;;;17.23;9.90;;;17.00;97.30;;;;;;6246714;23;20083;-80
2023/05/17 04:20:26;;;;;;;13.77;8.90;;;17.00;97.30;;;;;;6246717;23;20035;-80
2023/05/17 04:22:51;;;;;;;14.65;9.55;;;17.00;97.30;;;;;;6246705;23;20000;-79
2023/05/17 04:25:17;;;;;;;14.77;9.45;;;17.00;97.40;;;;;;6219644;23;20008;-79
2023/05/17 04:27:45;;;;;;;15.80;8.88;;;17.00;97.40;;;;;;6247376;23;20393;-80
2023/05/17 04:30:11;;;;;;;17.25;10.23;;;17.00;97.40;;;;;;6246640;23;20087;-81
2023/05/17 04:32:37;;;;;;;16.25;9.48;;;17.00;97.40;;;;;;6246632;23;19997;-80
2023/05/17 04:35:03;;;;;;;16.98;8.95;;;17.00;97.30;;;;;;6246666;23;20071;-80
2023/05/17 04:37:29;;;;;;;14.05;8.40;;;17.00;97.30;;;;;;6246758;23;20083;-79
2023/05/17 04:39:55;;;;;;;13.75;8.82;;;17.00;97.50;;;;;;6246994;23;20071;-79
2023/05/17 04:42:21;;;;;;;13.02;8.73;;;16.90;97.40;;;;;;6220478;23;20012;-80
2023/05/17 04:44:46;;;;;;;14.82;9.50;;;16.90;97.40;;;;;;6246205;23;20058;-79
2023/05/17 04:47:12;;;;;;;15.02;9.30;;;16.90;97.40;;;;;;6246979;23;20004;-79
2023/05/17 04:49:38;;;;;;;17.80;9.65;;;16.90;97.40;;;;;;6247031;23;20047;-79
2023/05/17 04:52:04;;;;;;;14.00;9.63;;;16.90;97.40;;;;;;6247413;23;20390;-80
2023/05/17 04:54:30;;;;;;;15.82;9.57;;;16.90;97.30;;;;;;6248658;23;20342;-81
2023/05/17 04:56:55;;;;;;;14.25;9.82;;;16.90;97.20;;;;;;6247053;23;19996;-79
2023/05/17 04:59:21;;;;;;;11.90;8.77;;;17.00;97.10;;;;;;6247184;23;20023;-80
2023/05/17 05:01:47;;;;;;;14.68;10.35;;;17.00;97.00;;;;;;6248899;23;20007;-80
2023/05/17 05:04:12;;;;;;;13.45;9.60;;;17.00;97.00;;;;;;6224361;23;20024;-80
2023/05/17 05:06:38;;;;;;;13.63;9.80;;;17.00;97.00;;;;;;6249268;23;20011;-80
2023/05/17 05:09:04;;;;;;;15.00;9.73;;;17.00;96.90;;;;;;6249844;23;20053;-80
2023/05/17 05:11:30;;;;;;;21.17;10.93;;;17.10;96.90;;;;;;6249781;23;20062;-79
2023/05/17 05:13:56;;;;;;;15.82;9.40;;;17.10;96.80;;;;;;6250868;23;20046;-81
2023/05/17 05:16:23;;;;;;;11.45;8.63;;;17.10;96.80;;;;;;6224517;23;20012;-80
2023/05/17 05:18:49;;;;;;;15.73;9.20;;;17.10;96.80;;;;;;6249782;23;20035;-80
2023/05/17 05:21:15;;;;;;;14.43;8.63;;;17.10;96.80;;;;;;6249996;23;19996;-80
2023/05/17 05:23:40;;;;;;;12.80;8.60;;;17.20;96.80;;;;;;6255056;23;20011;-80
2023/05/17 05:26:06;;;;;;;10.18;8.00;;;17.10;96.70;;;;;;6259388;23;20058;-80
2023/05/17 05:28:32;;;;;;;12.02;7.75;;;17.10;96.70;;;;;;6259196;23;20038;-80
2023/05/17 05:31:01;;;;;;;12.05;7.18;;;17.10;96.70;;;;;;6257030;23;20015;-79
2023/05/17 05:33:27;;;;;;;11.20;6.68;;;17.10;96.80;;;;;;6250437;23;20004;-79
2023/05/17 05:35:52;;;;;;;11.10;6.95;;;17.10;97.00;;;;;;6228567;23;20008;-80
2023/05/17 05:38:18;;;;;;;7.43;6.20;;;17.00;96.60;;;;;;6259767;23;19996;-79
2023/05/17 05:40:47;;;;;;;10.07;6.25;;;17.00;96.70;;;;;;6255130;23;20004;-80
2023/05/17 05:43:13;;;;;;;7.72;5.72;;;17.00;96.60;;;;;;6260402;23;20011;-79
2023/05/17 05:45:44;;;;;;;12.55;6.60;;;16.90;96.60;;;;;;6261847;23;20031;-80
2023/05/17 05:48:13;;;;;;;9.40;6.78;;;16.90;96.60;;;;;;6263240;23;19996;-80
2023/05/17 05:50:41;;;;;;;9.35;6.82;;;16.90;96.60;;;;;;6248709;23;20004;-81
2023/05/17 05:53:07;;;;;;;16.10;6.38;;;16.80;96.60;;;;;;6251664;23;20016;-83
2023/05/17 05:55:33;;;;;;;12.82;6.75;;;16.90;96.60;;;;;;6247211;23;20011;-80
2023/05/17 05:57:59;;;;;;;9.55;6.95;;;16.90;96.60;;;;;;6219809;23;20427;-77
2023/05/17 06:00:24;;;;;;;11.32;6.75;;;17.00;96.50;;;;;;6252954;23;20006;-80
2023/05/17 06:02:52;;;;;;;12.25;6.68;;;17.00;96.60;;;;;;6263672;23;20042;-77
2023/05/17 06:05:18;;;;;;;12.52;7.00;;;17.10;96.40;;;;;;6261117;23;20000;-78
2023/05/17 06:07:43;;;;;;;14.23;6.32;;;17.10;96.30;;;;;;6246476;23;20423;-80
2023/05/17 06:10:10;;;;;;;9.10;6.40;;;17.10;96.20;;;;;;6246982;23;20008;-81
2023/05/17 06:12:35;;;;;;;11.10;7.13;;;17.10;96.20;;;;;;6246889;23;20008;-80
2023/05/17 06:15:02;;;;;;;8.95;6.53;;;17.10;96.20;;;;;;6246152;23;20011;-80
2023/05/17 06:17:28;;;;;;;10.95;7.40;;;17.00;96.20;;;;;;6246281;23;19996;-79
2023/05/17 06:19:53;;;;;;;9.80;7.13;;;17.00;96.20;;;;;;6246149;23;20011;-79
2023/05/17 06:22:19;;;;;;;10.45;7.72;;;17.00;96.30;;;;;;6246198;23;20015;-80
2023/05/17 06:24:45;;;;;;;10.52;7.10;;;17.00;96.40;;;;;;6246396;23;20426;-81
2023/05/17 06:27:10;;;;;;;10.88;6.90;;;16.90;96.20;;;;;;6246324;23;20502;-80
2023/05/17 06:29:36;;;;;;;13.00;7.60;;;16.90;96.30;;;;;;6246119;23;20046;-80
2023/05/17 06:32:02;;;;;;;11.63;8.65;;;16.90;96.30;;;;;;6246747;23;20004;-80
2023/05/17 06:34:28;;;;;;;13.52;7.80;;;16.90;96.40;;;;;;6219043;23;20093;-81
2023/05/17 06:36:54;;;;;;;14.90;7.93;;;16.90;96.30;;;;;;6245807;23;20422;-80
2023/05/17 06:39:20;;;;;;;16.00;8.25;;;16.90;96.40;;;;;;6246208;23;20027;-80
2023/05/17 06:41:45;;;;;;;10.82;8.52;;;17.00;96.40;;;;;;6246010;23;19996;-80
2023/05/17 06:44:11;;;;;;;17.35;8.88;;;16.90;96.30;;;;;;6245811;23;20046;-80
2023/05/17 06:46:37;;;;;;;11.57;8.32;;;17.00;96.40;;;;;;6245857;23;20003;-81
2023/05/17 06:49:03;;;;;;;13.15;8.60;;;17.00;96.40;;;;;;6247175;23;20196;-78
2023/05/17 06:51:28;;;;;;;14.82;8.90;;;17.10;96.30;;;;;;6246268;23;20016;-78
2023/05/17 06:53:54;;;;;;;12.80;8.60;;;17.20;96.60;;;;;;6245450;23;20000;-79
2023/05/17 06:56:20;;;;;;;11.30;8.57;;;17.30;96.30;;;;;;6245185;23;20027;-80
2023/05/17 06:58:46;;;;;;;14.60;7.85;;;17.40;96.40;;;;;;6245547;23;20004;-79
2023/05/17 07:01:12;;;;;;;14.48;8.43;;;17.40;96.30;;;;;;6245371;23;20037;-81
2023/05/17 07:03:38;;;;;;;15.95;8.23;;;17.40;95.90;;;;;;6245445;23;20016;-80
2023/05/17 07:06:04;;;;;;;16.83;8.27;;;17.50;96.00;;;;;;6245426;23;20011;-81
2023/05/17 07:08:29;;;;;;;16.55;8.60;;;17.50;95.90;;;;;;6245030;23;20324;-80
2023/05/17 07:10:55;;;;;;;9.95;8.07;;;17.60;95.80;;;;;;6245365;23;20012;-80
2023/05/17 07:13:21;;;;;;;10.15;7.53;;;17.60;95.80;;;;;;6245391;23;20027;-81
2023/05/17 07:15:47;;;;;;;21.70;8.20;;;17.70;95.90;;;;;;6245426;23;20426;-80
2023/05/17 07:18:12;;;;;;;14.45;8.07;;;17.70;95.80;;;;;;6245937;23;20037;-80
2023/05/17 07:20:38;;;;;;;18.30;7.22;;;17.70;95.70;;;;;;6245534;23;20054;-80
2023/05/17 07:23:04;;;;;;;29.35;9.45;;;17.70;95.70;;;;;;6244968;23;20010;-79
2023/05/17 07:25:30;;;;;;;24.77;8.60;;;17.70;95.60;;;;;;6245063;23;20081;-80
2023/05/17 07:27:56;;;;;;;16.63;7.75;;;17.80;95.60;;;;;;6245332;23;20431;-78
2023/05/17 07:30:21;;;;;;;24.58;8.88;;;17.80;95.50;;;;;;6245126;23;20030;-80
2023/05/17 07:32:47;;;;;;;19.45;8.15;;;18.00;95.50;;;;;;6245930;23;20334;-80
2023/05/17 07:35:13;;;;;;;10.85;7.38;;;18.10;95.30;;;;;;6245145;23;20030;-80
2023/05/17 07:37:38;;;;;;;10.88;7.18;;;18.20;95.10;;;;;;6218684;23;20057;-81
2023/05/17 07:40:05;;;;;;;13.88;7.25;;;18.40;94.70;;;;;;6247304;23;20007;-81
2023/05/17 07:42:32;;;;;;;12.95;7.28;;;18.40;94.40;;;;;;6247343;23;20011;-81
2023/05/17 07:44:57;;;;;;;11.65;7.22;;;18.60;94.30;;;;;;6247418;23;20058;-80
2023/05/17 07:47:23;;;;;;;15.38;7.20;;;18.70;94.00;;;;;;6247346;23;20000;-79
2023/05/17 07:49:49;;;;;;;10.98;7.13;;;18.90;93.90;;;;;;6247816;23;20043;-80
2023/05/17 07:52:15;;;;;;;14.02;7.30;;;19.00;93.60;;;;;;6248934;23;20476;-80
2023/05/17 07:54:40;;;;;;;9.88;6.32;;;19.10;93.40;;;;;;6248598;23;20066;-79
2023/05/17 07:57:06;;;;;;;12.55;6.60;;;19.10;93.40;;;;;;6248283;23;20084;-80
2023/05/17 07:59:32;;;;;;;17.20;7.00;;;19.10;93.20;;;;;;6247509;23;20004;-80
2023/05/17 08:01:57;;;;;;;11.90;7.22;;;19.10;93.10;;;;;;6247717;23;20391;-81
2023/05/17 08:04:23;;;;;;;11.05;6.22;;;19.20;93.10;;;;;;6247804;23;20019;-81
2023/05/17 08:06:49;;;;;;;16.23;7.20;;;19.20;92.80;;;;;;6246798;23;20008;-80
2023/05/17 08:09:15;;;;;;;13.60;7.28;;;19.30;92.80;;;;;;6246653;23;20097;-80
2023/05/17 08:11:44;;;;;;;10.05;6.68;;;19.40;92.60;;;;;;6246746;23;20062;-80
2023/05/17 08:14:23;;;;;;;9.52;6.47;;;19.30;92.50;;;;;;6246297;23;20096;-80
2023/05/17 08:16:50;;;;;;;8.88;6.78;;;19.30;92.40;;;;;;6246895;23;20015;-80
2023/05/17 08:19:17;;;;;;;10.65;5.90;;;19.30;92.30;;;;;;6246565;23;20071;-81
2023/05/17 08:21:45;;;;;;;12.38;5.88;;;19.40;92.40;;;;;;6247069;23;20437;-81
2023/05/17 08:24:11;;;;;;;7.28;5.03;;;19.50;91.90;;;;;;6246199;23;20007;-80
2023/05/17 08:26:37;;;;;;;7.07;4.53;;;19.50;91.50;;;;;;6246159;23;20032;-80
2023/05/17 08:29:03;;;;;;;8.75;5.30;;;19.60;91.30;;;;;;6246145;23;20047;-81
2023/05/17 08:31:30;;;;;;;8.80;5.63;;;19.60;91.10;;;;;;6219511;23;20096;-81
2023/05/17 08:33:56;;;;;;;8.07;5.95;;;19.50;91.00;;;;;;6246463;23;20003;-82
2023/05/17 08:36:21;;;;;;;8.57;5.35;;;19.60;90.90;;;;;;6246421;23;20004;-82
2023/05/17 08:38:47;;;;;;;11.77;6.45;;;19.50;90.90;;;;;;6246414;23;20004;-81
2023/05/17 08:41:13;;;;;;;11.43;5.90;;;19.50;90.90;;;;;;6219506;23;20441;-82
2023/05/17 08:43:40;;;;;;;8.75;4.88;;;19.60;90.80;;;;;;6247551;23;19996;-81
2023/05/17 08:46:06;;;;;;;11.55;4.93;;;19.60;90.70;;;;;;6248725;23;20083;-80
2023/05/17 08:48:35;;;;;;;12.50;5.30;;;19.70;90.70;;;;;;6246765;23;20316;-81
2023/05/17 08:51:02;;;;;;;9.82;5.05;;;19.80;90.70;;;;;;6246096;23;20035;-80
2023/05/17 08:53:28;;;;;;;10.50;5.68;;;19.90;90.60;;;;;;6246252;23;20362;-80
2023/05/17 08:55:59;;;;;;;8.75;5.63;;;19.90;90.70;;;;;;6245899;23;20087;-82
2023/05/17 08:58:29;;;;;;;19.33;5.93;;;20.00;90.50;;;;;;6245938;23;20024;-82
2023/05/17 09:00:57;;;;;;;11.15;5.15;;;20.00;90.50;;;;;;6246437;23;19996;-79
2023/05/17 09:03:24;;;;;;;9.15;5.15;;;20.00;90.40;;;;;;6245476;23;20016;-80
2023/05/17 09:05:53;;;;;;;8.77;4.80;;;20.10;90.30;;;;;;6246411;23;20000;-79
2023/05/17 09:08:21;;;;;;;7.90;4.57;;;20.20;90.30;;;;;;6245693;23;20043;-80
2023/05/17 09:10:46;;;;;;;9.18;4.53;;;20.20;89.90;;;;;;6246033;23;20073;-82
2023/05/17 09:13:12;;;;;;;10.73;4.32;;;20.30;89.80;;;;;;6246235;23;20008;-80
2023/05/17 09:15:41;;;;;;;7.97;4.63;;;20.30;89.90;;;;;;6245727;23;20032;-80
2023/05/17 09:18:12;;;;;;;13.88;4.30;;;20.30;89.00;;;;;;6218641;23;20004;-80
2023/05/17 09:20:38;;;;;;;8.98;3.60;;;20.30;89.00;;;;;;6245992;23;20031;-79
2023/05/17 09:23:12;;;;;;;5.88;3.38;;;20.30;88.50;;;;;;6245815;23;20166;-80
2023/05/17 09:25:46;;;;;;;9.32;3.15;;;20.30;88.00;;;;;;6245676;23;20079;-81
2023/05/17 09:28:12;;;;;;;5.13;3.00;;;20.30;88.00;;;;;;6245935;23;20003;-79
2023/05/17 09:30:38;;;;;;;7.32;2.95;;;20.30;87.90;;;;;;6246790;23;20012;-78
2023/05/17 09:33:06;;;;;;;8.23;3.92;;;20.40;88.00;;;;;;6245654;23;20023;-80
2023/05/17 09:35:33;;;;;;;10.15;3.28;;;20.40;87.70;;;;;;6219106;23;20435;-80
2023/05/17 09:38:10;;;;;;;7.88;3.00;;;20.30;87.90;;;;;;6245905;23;20445;-79
2023/05/17 09:40:42;;;;;;;8.02;2.55;;;20.30;88.10;;;;;;6245654;23;20009;-82
2023/05/17 09:43:09;;;;;;;8.52;2.83;;;20.30;87.60;;;;;;6246491;23;20000;-81
2023/05/17 09:45:36;;;;;;;5.20;2.50;;;20.30;87.50;;;;;;6246007;23;20012;-80
2023/05/17 09:48:15;;;;;;;5.70;2.90;;;20.40;87.20;;;;;;6245954;23;20075;-81
2023/05/17 09:50:50;;;;;;;7.10;2.60;;;20.40;87.00;;;;;;6246016;23;20043;-79
2023/05/17 09:53:24;;;;;;;8.00;3.10;;;20.40;86.70;;;;;;6250361;23;19996;-79
2023/05/17 09:55:56;;;;;;;7.82;2.90;;;20.50;86.00;;;;;;6252862;23;20277;-79
2023/05/17 09:58:22;;;;;;;10.93;2.63;;;20.60;86.10;;;;;;6252355;23;20079;-80
2023/05/17 10:01:01;;;;;;;5.63;2.03;;;20.70;85.50;;;;;;6253261;23;20375;-79
2023/05/17 10:03:34;;;;;;;7.95;2.10;;;20.80;84.90;;;;;;6251582;23;20013;-80
2023/05/17 10:06:04;;;;;;;5.32;1.70;;;20.90;84.40;;;;;;6250619;23;20000;-80
2023/05/17 10:08:30;;;;;;;6.88;2.03;;;21.10;83.80;;;;;;6224055;23;20107;-81
2023/05/17 10:11:02;;;;;;;7.40;2.05;;;21.20;83.40;;;;;;6250081;23;20040;-80
2023/05/17 10:13:34;;;;;;;2.83;1.42;;;21.40;82.70;;;;;;6252602;23;20001;-81
2023/05/17 10:16:01;;;;;;;12.07;1.97;;;21.40;81.70;;;;;;6251643;23;19996;-81
2023/05/17 10:18:29;;;;;;;5.40;2.08;;;21.30;81.80;;;;;;6253966;23;20000;-79
2023/05/17 10:20:55;;;;;;;3.03;1.50;;;21.30;81.50;;;;;;6224471;23;20060;-79
2023/05/17 10:23:22;;;;;;;8.02;1.60;;;21.30;81.60;;;;;;6246602;23;20023;-81
2023/05/17 10:25:48;;;;;;;3.65;1.30;;;21.20;81.70;;;;;;6246378;23;20019;-82
2023/05/17 10:28:16;;;;;;;3.85;1.20;;;21.20;81.30;;;;;;6245372;23;20023;-79
2023/05/17 10:30:42;;;;;;;6.05;1.67;;;21.10;81.50;;;;;;6245944;23;20101;-80
2023/05/17 10:33:11;;;;;;;3.95;1.38;;;21.00;81.80;;;;;;6245417;23;20007;-81
2023/05/17 10:35:38;;;;;;;4.13;1.42;;;20.90;82.20;;;;;;6245479;23;20035;-79
2023/05/17 10:38:03;;;;;;;8.75;2.03;;;20.80;82.60;;;;;;6244834;23;19996;-81
2023/05/17 10:40:30;;;;;;;8.93;1.55;;;20.70;82.70;;;;;;6245007;23;20326;-80
2023/05/17 10:42:57;;;;;;;3.42;1.60;;;20.60;82.90;;;;;;6245305;23;20372;-81
2023/05/17 10:45:25;;;;;;;4.40;1.25;;;20.60;82.90;;;;;;6244910;23;19996;-80
2023/05/17 10:47:51;;;;;;;4.60;1.50;;;20.60;82.40;;;;;;6245452;23;20000;-80
2023/05/17 10:50:25;;;;;;;2.55;1.17;;;20.60;82.10;;;;;;6245936;23;20015;-81
2023/05/17 10:52:51;;;;;;;;;;;20.70;81.70;;;;;;6246181;23;20001;-79
2023/05/17 10:55:19;;;;;;;5.63;1.20;;;20.80;80.60;;;;;;6245720;23;19900;-80
2023/05/17 10:58:07;;;;;;;2.58;1.02;;;20.80;81.20;;;;;;6246317;23;20027;-82
2023/05/17 11:00:41;;;;;;;3.13;1.20;;;21.00;80.60;;;;;;6247097;23;20011;-79
2023/05/17 11:03:12;;;;;;;;;;;21.10;80.40;;;;;;6246433;23;20023;-80
2023/05/17 11:05:41;;;;;;;2.53;1.02;;;21.30;80.50;;;;;;6246036;23;19993;-79
2023/05/17 11:08:14;;;;;;;2.08;1.10;;;21.40;79.10;;;;;;6245392;23;20008;-82
2023/05/17 11:11:10;;;;;;;4.18;1.27;;;21.60;78.50;;;;;;6245454;23;20446;-81
2023/05/17 11:13:51;;;;;;;6.35;1.33;;;21.60;79.00;;;;;;6244737;23;20006;-81
2023/05/17 11:16:20;;;;;;;4.65;1.08;;;21.60;78.40;;;;;;6245355;23;20011;-80
2023/05/17 11:18:51;;;;;;;4.43;1.20;;;21.70;78.20;;;;;;6245268;23;20054;-79
2023/05/17 11:21:17;;;;;;;2.17;1.25;;;21.60;77.70;;;;;;6245876;23;20079;-80
2023/05/17 11:23:44;;;;;;;1.77;1.05;;;21.70;78.10;;;;;;6245551;23;20428;-80
2023/05/17 11:26:33;;;;;;;4.55;1.45;;;21.80;77.70;;;;;;6218403;23;20358;-81
2023/05/17 11:29:06;;;;;;;4.05;1.40;;;21.90;79.00;;;;;;6218343;23;20001;-80
2023/05/17 11:31:34;;;;;;;3.13;1.48;;;22.00;77.00;;;;;;6245931;23;20334;-80
2023/05/17 11:34:04;;;;;;;3.50;1.38;;;22.00;77.20;;;;;;6245400;23;20000;-81
2023/05/17 11:36:31;;;;;;;4.07;1.35;;;22.00;77.60;;;;;;6246086;23;20500;-81
2023/05/17 11:39:14;;;;;;;3.70;1.90;;;22.10;76.70;;;;;;6245369;23;20005;-80
2023/05/17 11:41:50;;;;;;;5.10;1.30;;;22.10;77.20;;;;;;6245359;23;20004;-80
2023/05/17 11:44:39;;;;;;;3.85;1.20;;;22.10;76.20;;;;;;6245997;23;20381;-81
2023/05/17 11:47:08;;;;;;;3.95;1.30;;;22.30;75.50;;;;;;6246512;23;20326;-81
2023/05/17 11:49:36;;;;;;;3.80;1.20;;;22.50;75.20;;;;;;6245145;23;20004;-80
2023/05/17 11:52:05;;;;;;;2.03;0.95;;;22.70;74.60;;;;;;6218238;23;20106;-81
2023/05/17 11:54:32;;;;;;;2.80;1.10;;;22.70;74.00;;;;;;6245709;23;20422;-80
2023/05/17 11:57:02;;;;;;;3.63;0.98;;;22.80;73.80;;;;;;6245070;23;20058;-81
2023/05/17 11:59:28;;;;;;;3.60;1.15;;;22.90;73.50;;;;;;6245341;23;20339;-80
2023/05/17 12:01:55;;;;;;;2.88;1.10;;;22.80;73.10;;;;;;6245173;23;20000;-80
2023/05/17 12:04:25;;;;;;;1.75;1.00;;;22.90;72.90;;;;;;6245208;23;20028;-82
2023/05/17 12:06:53;;;;;;;4.68;1.25;;;22.90;72.80;;;;;;6245266;23;20007;-79
2023/05/17 12:09:19;;;;;;;10.48;1.60;;;22.90;72.30;;;;;;6247890;23;20079;-80
2023/05/17 12:11:46;;;;;;;4.63;1.10;;;23.00;72.40;;;;;;6246655;23;20004;-81
2023/05/17 12:14:16;;;;;;;2.58;1.35;;;23.10;71.80;;;;;;6246704;23;20000;-81
2023/05/17 12:16:43;;;;;;;3.15;1.20;;;23.30;71.00;;;;;;6245774;23;20043;-81
2023/05/17 12:19:21;;;;;;;1.75;1.00;;;23.20;70.70;;;;;;6245140;23;20075;-81
2023/05/17 12:21:47;;;;;;;5.30;1.10;;;23.20;71.00;;;;;;6245595;23;20043;-81
2023/05/17 12:24:13;;;;;;;2.97;0.80;;;23.20;70.60;;;;;;6245154;23;20330;-81
2023/05/17 12:26:44;;;;;;;2.72;0.95;;;23.20;70.50;;;;;;6246443;23;20001;-80
2023/05/17 12:29:10;;;;;;;4.35;1.00;;;23.10;70.20;;;;;;6246685;23;20004;-81
2023/05/17 12:31:39;;;;;;;2.40;0.90;;;23.10;70.10;;;;;;6246886;23;20018;-81
2023/05/17 12:34:05;;;;;;;2.78;0.75;;;23.10;70.20;;;;;;6247471;23;20330;-81
2023/05/17 12:36:32;;;;;;;1.95;0.73;;;22.90;70.20;;;;;;6247212;23;20006;-82
2023/05/17 12:39:00;;;;;;;1.00;0.82;;;22.90;70.40;;;;;;6247239;23;20012;-79
2023/05/17 12:41:26;;;;;;;3.05;0.68;;;22.80;70.50;;;;;;6247251;23;20362;-81
2023/05/17 12:43:52;;;;;;;2.58;0.85;;;22.70;69.90;;;;;;6246902;23;20307;-81